sensor_id;sensor_type;location;lat;lon;timestamp;pressure;altitude;pressure_sealevel;temperature;humidity
76553;BME280;65395;53.168;18.156;2022-11-20T16:32:47;100233.95;;;-0.17;78.01
76553;BME280;65395;53.168;18.156;2022-11-20T16:35:13;100232.14;;;-0.20;77.97
76553;BME280;65395;53.168;18.156;2022-11-20T16:37:40;100234.73;;;-0.23;78.01
76553;BME280;65395;53.168;18.156;2022-11-20T16:40:09;100235.17;;;-0.26;77.99
76553;BME280;65395;53.168;18.156;2022-11-20T16:42:36;100233.88;;;-0.30;78.06
76553;BME280;65395;53.168;18.156;2022-11-20T16:45:04;100229.34;;;-0.33;77.97
76553;BME280;65395;53.168;18.156;2022-11-20T16:47:33;100227.95;;;-0.33;77.98
76553;BME280;65395;53.168;18.156;2022-11-20T16:50:01;100226.95;;;-0.32;78.05
76553;BME280;65395;53.168;18.156;2022-11-20T16:52:29;100226.48;;;-0.27;78.15
76553;BME280;65395;53.168;18.156;2022-11-20T16:54:57;100232.66;;;-0.22;78.12
76553;BME280;65395;53.168;18.156;2022-11-20T16:57:27;100231.25;;;-0.18;78.07
76553;BME280;65395;53.168;18.156;2022-11-20T16:59:54;100231.75;;;-0.19;77.85
76553;BME280;65395;53.168;18.156;2022-11-20T17:02:21;100232.34;;;-0.18;77.89
76553;BME280;65395;53.168;18.156;2022-11-20T17:04:48;100232.14;;;-0.16;77.93
76553;BME280;65395;53.168;18.156;2022-11-20T17:07:15;100232.70;;;-0.16;78.02
76553;BME280;65395;53.168;18.156;2022-11-20T17:09:41;100230.83;;;-0.19;77.79
76553;BME280;65395;53.168;18.156;2022-11-20T17:12:08;100229.05;;;-0.22;77.89
76553;BME280;65395;53.168;18.156;2022-11-20T17:14:35;100227.67;;;-0.25;78.08
76553;BME280;65395;53.168;18.156;2022-11-20T17:17:02;100222.50;;;-0.27;77.96
76553;BME280;65395;53.168;18.156;2022-11-20T17:19:29;100223.98;;;-0.30;78.19
76553;BME280;65395;53.168;18.156;2022-11-20T17:21:55;100227.98;;;-0.32;77.88
76553;BME280;65395;53.168;18.156;2022-11-20T17:24:22;100223.05;;;-0.30;78.18
76553;BME280;65395;53.168;18.156;2022-11-20T17:26:49;100222.98;;;-0.27;78.23
76553;BME280;65395;53.168;18.156;2022-11-20T17:29:18;100221.50;;;-0.23;78.14
76553;BME280;65395;53.168;18.156;2022-11-20T17:31:49;100217.50;;;-0.17;78.13
76553;BME280;65395;53.168;18.156;2022-11-20T17:34:16;100216.23;;;-0.13;78.04
76553;BME280;65395;53.168;18.156;2022-11-20T17:36:43;100217.92;;;-0.10;78.01
76553;BME280;65395;53.168;18.156;2022-11-20T17:39:12;100213.42;;;-0.10;78.09
76553;BME280;65395;53.168;18.156;2022-11-20T17:41:39;100209.74;;;-0.12;78.22
76553;BME280;65395;53.168;18.156;2022-11-20T17:44:09;100209.83;;;-0.12;78.28
76553;BME280;65395;53.168;18.156;2022-11-20T17:46:36;100211.06;;;-0.13;78.27
76553;BME280;65395;53.168;18.156;2022-11-20T17:49:03;100207.35;;;-0.16;78.22
76553;BME280;65395;53.168;18.156;2022-11-20T17:51:32;100207.98;;;-0.22;78.40
76553;BME280;65395;53.168;18.156;2022-11-20T17:54:02;100205.13;;;-0.24;78.49
76553;BME280;65395;53.168;18.156;2022-11-20T17:56:32;100202.31;;;-0.27;78.44
76553;BME280;65395;53.168;18.156;2022-11-20T17:59:12;100201.30;;;-0.25;78.44
76553;BME280;65395;53.168;18.156;2022-11-20T18:01:39;100196.77;;;-0.24;78.57
76553;BME280;65395;53.168;18.156;2022-11-20T18:04:08;100194.40;;;-0.22;78.45
76553;BME280;65395;53.168;18.156;2022-11-20T18:06:36;100193.48;;;-0.18;78.43
76553;BME280;65395;53.168;18.156;2022-11-20T18:09:04;100189.50;;;-0.16;78.30
76553;BME280;65395;53.168;18.156;2022-11-20T18:11:34;100188.91;;;-0.17;78.27
76553;BME280;65395;53.168;18.156;2022-11-20T18:14:03;100187.27;;;-0.16;78.29
76553;BME280;65395;53.168;18.156;2022-11-20T18:16:45;100185.92;;;-0.16;78.27
76553;BME280;65395;53.168;18.156;2022-11-20T18:19:15;100182.00;;;-0.18;78.24
76553;BME280;65395;53.168;18.156;2022-11-20T18:21:42;100183.38;;;-0.19;78.32
76553;BME280;65395;53.168;18.156;2022-11-20T18:24:10;100181.89;;;-0.20;78.35
76553;BME280;65395;53.168;18.156;2022-11-20T18:26:37;100180.13;;;-0.22;78.47
76553;BME280;65395;53.168;18.156;2022-11-20T18:29:04;100176.10;;;-0.27;78.64
76553;BME280;65395;53.168;18.156;2022-11-20T18:31:31;100177.14;;;-0.29;78.75
76553;BME280;65395;53.168;18.156;2022-11-20T18:33:58;100173.52;;;-0.29;78.69
76553;BME280;65395;53.168;18.156;2022-11-20T18:36:27;100171.91;;;-0.26;78.85
76553;BME280;65395;53.168;18.156;2022-11-20T18:38:56;100173.76;;;-0.25;78.69
76553;BME280;65395;53.168;18.156;2022-11-20T18:41:25;100176.41;;;-0.24;78.75
76553;BME280;65395;53.168;18.156;2022-11-20T18:44:04;100177.35;;;-0.24;78.68
76553;BME280;65395;53.168;18.156;2022-11-20T18:46:42;100177.38;;;-0.25;78.66
76553;BME280;65395;53.168;18.156;2022-11-20T18:49:09;100177.31;;;-0.25;78.71
76553;BME280;65395;53.168;18.156;2022-11-20T18:51:38;100177.94;;;-0.28;78.75
76553;BME280;65395;53.168;18.156;2022-11-20T18:54:06;100182.00;;;-0.31;78.69
76553;BME280;65395;53.168;18.156;2022-11-20T18:56:33;100184.16;;;-0.35;78.83
76553;BME280;65395;53.168;18.156;2022-11-20T18:59:01;100186.41;;;-0.38;78.90
76553;BME280;65395;53.168;18.156;2022-11-20T19:01:28;100174.08;;;-0.50;78.81
76553;BME280;65395;53.168;18.156;2022-11-20T19:03:56;100185.63;;;-0.45;79.00
76553;BME280;65395;53.168;18.156;2022-11-20T19:06:24;100186.14;;;-0.43;79.02
76553;BME280;65395;53.168;18.156;2022-11-20T19:08:52;100184.31;;;-0.39;78.88
76553;BME280;65395;53.168;18.156;2022-11-20T19:11:19;100187.76;;;-0.33;78.76
76553;BME280;65395;53.168;18.156;2022-11-20T19:13:45;100185.17;;;-0.28;78.80
76553;BME280;65395;53.168;18.156;2022-11-20T19:16:14;100181.77;;;-0.23;78.61
76553;BME280;65395;53.168;18.156;2022-11-20T19:18:43;100182.77;;;-0.20;78.71
76553;BME280;65395;53.168;18.156;2022-11-20T19:21:13;100180.70;;;-0.18;78.69
76553;BME280;65395;53.168;18.156;2022-11-20T19:23:40;100182.49;;;-0.16;78.49
76553;BME280;65395;53.168;18.156;2022-11-20T19:26:07;100185.45;;;-0.16;78.49
76553;BME280;65395;53.168;18.156;2022-11-20T19:28:35;100184.79;;;-0.18;78.51
76553;BME280;65395;53.168;18.156;2022-11-20T19:31:04;100185.98;;;-0.20;78.53
76553;BME280;65395;53.168;18.156;2022-11-20T19:33:32;100186.44;;;-0.23;78.38
76553;BME280;65395;53.168;18.156;2022-11-20T19:36:13;100184.68;;;-0.27;78.72
76553;BME280;65395;53.168;18.156;2022-11-20T19:38:41;100185.25;;;-0.30;78.71
76553;BME280;65395;53.168;18.156;2022-11-20T19:41:09;100185.86;;;-0.28;78.66
76553;BME280;65395;53.168;18.156;2022-11-20T19:43:36;100184.59;;;-0.27;78.66
76553;BME280;65395;53.168;18.156;2022-11-20T19:46:03;100191.66;;;-0.21;78.77
76553;BME280;65395;53.168;18.156;2022-11-20T19:48:31;100186.05;;;-0.17;78.89
76553;BME280;65395;53.168;18.156;2022-11-20T19:51:07;100184.91;;;-0.15;78.75
76553;BME280;65395;53.168;18.156;2022-11-20T19:53:34;100181.64;;;-0.13;78.67
76553;BME280;65395;53.168;18.156;2022-11-20T19:56:01;100182.63;;;-0.13;78.68
76553;BME280;65395;53.168;18.156;2022-11-20T19:58:28;100182.90;;;-0.12;78.77
76553;BME280;65395;53.168;18.156;2022-11-20T20:00:55;100181.64;;;-0.13;78.69
76553;BME280;65395;53.168;18.156;2022-11-20T20:03:22;100175.42;;;-0.15;78.78
76553;BME280;65395;53.168;18.156;2022-11-20T20:05:48;100179.50;;;-0.18;78.80
76553;BME280;65395;53.168;18.156;2022-11-20T20:08:15;100176.52;;;-0.19;78.82
76553;BME280;65395;53.168;18.156;2022-11-20T20:10:42;100178.31;;;-0.18;78.77
76553;BME280;65395;53.168;18.156;2022-11-20T20:13:08;100176.25;;;-0.17;78.57
76553;BME280;65395;53.168;18.156;2022-11-20T20:15:38;100174.84;;;-0.18;78.61
76553;BME280;65395;53.168;18.156;2022-11-20T20:18:06;100176.25;;;-0.17;78.74
76553;BME280;65395;53.168;18.156;2022-11-20T20:20:32;100169.39;;;-0.14;78.40
76553;BME280;65395;53.168;18.156;2022-11-20T20:22:59;100170.77;;;-0.15;78.41
76553;BME280;65395;53.168;18.156;2022-11-20T20:25:27;100172.61;;;-0.16;78.52
76553;BME280;65395;53.168;18.156;2022-11-20T20:27:54;100169.13;;;-0.15;78.46
76553;BME280;65395;53.168;18.156;2022-11-20T20:30:21;100173.88;;;-0.13;78.33
76553;BME280;65395;53.168;18.156;2022-11-20T20:32:48;100173.77;;;-0.15;78.41
76553;BME280;65395;53.168;18.156;2022-11-20T20:35:14;100177.02;;;-0.18;78.35
76553;BME280;65395;53.168;18.156;2022-11-20T20:37:41;100177.90;;;-0.20;78.41
76553;BME280;65395;53.168;18.156;2022-11-20T20:40:08;100174.95;;;-0.23;78.35
76553;BME280;65395;53.168;18.156;2022-11-20T20:42:35;100177.17;;;-0.27;78.34
76553;BME280;65395;53.168;18.156;2022-11-20T20:45:02;100180.86;;;-0.32;78.31
76553;BME280;65395;53.168;18.156;2022-11-20T20:47:34;100179.77;;;-0.36;78.31
76553;BME280;65395;53.168;18.156;2022-11-20T20:50:04;100178.42;;;-0.36;78.31
76553;BME280;65395;53.168;18.156;2022-11-20T20:52:31;100177.23;;;-0.34;78.29
76553;BME280;65395;53.168;18.156;2022-11-20T20:54:58;100178.37;;;-0.32;78.19
76553;BME280;65395;53.168;18.156;2022-11-20T20:57:25;100175.95;;;-0.29;78.18
76553;BME280;65395;53.168;18.156;2022-11-20T20:59:53;100174.84;;;-0.25;78.35
76553;BME280;65395;53.168;18.156;2022-11-20T21:02:21;100176.30;;;-0.20;78.02
76553;BME280;65395;53.168;18.156;2022-11-20T21:04:49;100175.53;;;-0.17;77.97
76553;BME280;65395;53.168;18.156;2022-11-20T21:07:16;100173.63;;;-0.17;77.99
76553;BME280;65395;53.168;18.156;2022-11-20T21:09:43;100172.02;;;-0.15;78.04
76553;BME280;65395;53.168;18.156;2022-11-20T21:12:10;100167.52;;;-0.14;78.05
76553;BME280;65395;53.168;18.156;2022-11-20T21:14:37;100165.70;;;-0.15;77.94
76553;BME280;65395;53.168;18.156;2022-11-20T21:17:04;100163.10;;;-0.15;78.12
76553;BME280;65395;53.168;18.156;2022-11-20T21:19:30;100162.98;;;-0.14;78.06
76553;BME280;65395;53.168;18.156;2022-11-20T21:21:57;100161.76;;;-0.13;78.09
76553;BME280;65395;53.168;18.156;2022-11-20T21:24:27;100167.98;;;-0.12;78.05
76553;BME280;65395;53.168;18.156;2022-11-20T21:26:55;100162.99;;;-0.11;78.12
76553;BME280;65395;53.168;18.156;2022-11-20T21:29:24;100164.08;;;-0.08;78.12
76553;BME280;65395;53.168;18.156;2022-11-20T21:31:51;100163.65;;;-0.04;77.90
76553;BME280;65395;53.168;18.156;2022-11-20T21:34:18;100158.91;;;-0.02;77.87
76553;BME280;65395;53.168;18.156;2022-11-20T21:36:46;100149.23;;;-0.02;77.87
76553;BME280;65395;53.168;18.156;2022-11-20T21:39:13;100155.68;;;-0.01;77.89
76553;BME280;65395;53.168;18.156;2022-11-20T21:41:40;100151.65;;;-0.01;77.72
76553;BME280;65395;53.168;18.156;2022-11-20T21:44:11;100154.21;;;-0.02;77.78
76553;BME280;65395;53.168;18.156;2022-11-20T21:46:41;100154.90;;;-0.06;77.79
76553;BME280;65395;53.168;18.156;2022-11-20T21:49:08;100156.04;;;-0.08;77.92
76553;BME280;65395;53.168;18.156;2022-11-20T21:51:36;100152.63;;;-0.11;77.92
76553;BME280;65395;53.168;18.156;2022-11-20T21:54:03;100150.69;;;-0.14;77.87
76553;BME280;65395;53.168;18.156;2022-11-20T21:56:30;100151.48;;;-0.16;78.03
76553;BME280;65395;53.168;18.156;2022-11-20T21:58:57;100147.41;;;-0.17;77.98
76553;BME280;65395;53.168;18.156;2022-11-20T22:01:26;100147.32;;;-0.19;77.87
76553;BME280;65395;53.168;18.156;2022-11-20T22:03:56;100145.91;;;-0.19;78.12
76553;BME280;65395;53.168;18.156;2022-11-20T22:06:25;100147.97;;;-0.15;77.95
76553;BME280;65395;53.168;18.156;2022-11-20T22:08:52;100138.16;;;-0.11;77.92
76553;BME280;65395;53.168;18.156;2022-11-20T22:11:20;100137.48;;;-0.11;77.96
76553;BME280;65395;53.168;18.156;2022-11-20T22:13:47;100134.16;;;-0.12;77.75
76553;BME280;65395;53.168;18.156;2022-11-20T22:16:24;100133.70;;;-0.11;77.43
76553;BME280;65395;53.168;18.156;2022-11-20T22:18:53;100133.76;;;-0.14;77.69
76553;BME280;65395;53.168;18.156;2022-11-20T22:21:22;100129.02;;;-0.18;77.75
76553;BME280;65395;53.168;18.156;2022-11-20T22:23:50;100126.09;;;-0.24;77.66
76553;BME280;65395;53.168;18.156;2022-11-20T22:26:19;100124.11;;;-0.31;77.71
76553;BME280;65395;53.168;18.156;2022-11-20T22:28:48;100128.34;;;-0.36;77.75
76553;BME280;65395;53.168;18.156;2022-11-20T22:31:15;100132.15;;;-0.42;77.88
76553;BME280;65395;53.168;18.156;2022-11-20T22:33:43;100131.05;;;-0.47;77.90
76553;BME280;65395;53.168;18.156;2022-11-20T22:36:12;100134.78;;;-0.52;78.04
76553;BME280;65395;53.168;18.156;2022-11-20T22:38:39;100139.52;;;-0.53;77.86
76553;BME280;65395;53.168;18.156;2022-11-20T22:41:10;100140.65;;;-0.55;78.03
76553;BME280;65395;53.168;18.156;2022-11-20T22:43:43;100145.98;;;-0.54;78.11
76553;BME280;65395;53.168;18.156;2022-11-20T22:46:15;100148.67;;;-0.51;78.14
76553;BME280;65395;53.168;18.156;2022-11-20T22:48:48;100148.67;;;-0.49;78.08
76553;BME280;65395;53.168;18.156;2022-11-20T22:51:17;100142.92;;;-0.45;78.10
76553;BME280;65395;53.168;18.156;2022-11-20T22:53:46;100139.76;;;-0.42;78.29
76553;BME280;65395;53.168;18.156;2022-11-20T22:56:14;100142.20;;;-0.40;78.31
76553;BME280;65395;53.168;18.156;2022-11-20T22:58:43;100140.94;;;-0.38;78.10
76553;BME280;65395;53.168;18.156;2022-11-20T23:01:15;100135.91;;;-0.36;78.16
76553;BME280;65395;53.168;18.156;2022-11-20T23:03:44;100130.60;;;-0.35;78.28
76553;BME280;65395;53.168;18.156;2022-11-20T23:06:12;100125.99;;;-0.35;78.11
76553;BME280;65395;53.168;18.156;2022-11-20T23:08:40;100125.83;;;-0.38;78.04
76553;BME280;65395;53.168;18.156;2022-11-20T23:11:10;100126.30;;;-0.40;78.06
76553;BME280;65395;53.168;18.156;2022-11-20T23:13:38;100123.22;;;-0.43;78.18
76553;BME280;65395;53.168;18.156;2022-11-20T23:16:07;100122.57;;;-0.49;78.10
76553;BME280;65395;53.168;18.156;2022-11-20T23:18:36;100115.73;;;-0.54;78.05
76553;BME280;65395;53.168;18.156;2022-11-20T23:21:12;100110.73;;;-0.58;77.87
76553;BME280;65395;53.168;18.156;2022-11-20T23:23:40;100111.18;;;-0.59;77.83
76553;BME280;65395;53.168;18.156;2022-11-20T23:26:10;100107.60;;;-0.61;77.68
76553;BME280;65395;53.168;18.156;2022-11-20T23:28:38;100101.14;;;-0.70;77.78
76553;BME280;65395;53.168;18.156;2022-11-20T23:31:06;100096.25;;;-0.81;77.71
76553;BME280;65395;53.168;18.156;2022-11-20T23:33:35;100098.66;;;-0.92;77.69
76553;BME280;65395;53.168;18.156;2022-11-20T23:36:02;100095.27;;;-1.04;77.78
76553;BME280;65395;53.168;18.156;2022-11-20T23:38:29;100087.45;;;-1.15;78.04
76553;BME280;65395;53.168;18.156;2022-11-20T23:40:56;100088.50;;;-1.30;77.71
76553;BME280;65395;53.168;18.156;2022-11-20T23:43:23;100094.22;;;-1.43;77.91
76553;BME280;65395;53.168;18.156;2022-11-20T23:45:53;100095.96;;;-1.57;77.94
76553;BME280;65395;53.168;18.156;2022-11-20T23:48:22;100096.10;;;-1.73;77.95
76553;BME280;65395;53.168;18.156;2022-11-20T23:50:49;100095.93;;;-1.89;78.11
76553;BME280;65395;53.168;18.156;2022-11-20T23:53:16;100099.44;;;-2.04;78.42
76553;BME280;65395;53.168;18.156;2022-11-20T23:55:46;100096.17;;;-2.16;78.61
76553;BME280;65395;53.168;18.156;2022-11-20T23:58:13;100093.96;;;-2.24;78.85
